KCMY

Sparta/Fort Mc Coy Airport

Sparta, Wisconsin, USA
METAR KCMY 181615Z AUTO 25005KT 5SM BR OVC008 M01/M02 A2989 RMK AO2 T10131025
Observed Flight Rules
Dec-18 @ 16:15 UTC (31 minutes ago) Instrument Flight Rules
Wind Visibility Clouds Conditions
250° at 5 knots 5 miles
  • Overcast at 800' AGL
  • Mist
Temperatures Readings
Current -1°C / 30°F
Dewpoint -3°C / 27°F
Humidity 86%
Altimeter 29.89" Hg
Pressure 1012 hPa
Elevation 256
METAR KCMY 181615Z AUTO 25005KT 5SM BR OVC008 M01/M02 A2989 RMK AO2 T10131025
Observed Flight Rules
Dec-18 @ 16:15 UTC
(31 minutes ago)
IFR
Wind Visibility
250° at 5 knots 5 miles
Clouds
  • Overcast at 800' AGL
Conditions
  • Mist
Temperature Dewpoint
-1°C / 30°F -3°C / 27°F
Humidity Altimeter Pressure
86% 29.89" Hg 1012 hPa